地図

経路データ

SID SEASON NUMBER BASIN SUBBASIN NAME ISO_TIME NATURE LAT LON WMO_WIND WMO_PRES WMO_AGENCY TRACK_TYPE DIST2LAND LANDFALL IFLAG USA_AGENCY USA_ATCF_ID USA_LAT USA_LON USA_RECORD USA_STATUS USA_WIND USA_PRES USA_SSHS USA_R34_NE USA_R34_SE USA_R34_SW USA_R34_NW USA_R50_NE USA_R50_SE USA_R50_SW USA_R50_NW USA_R64_NE USA_R64_SE USA_R64_SW USA_R64_NW USA_POCI USA_ROCI USA_RMW USA_EYE TOKYO_LAT TOKYO_LON TOKYO_GRADE TOKYO_WIND TOKYO_PRES TOKYO_R50_DIR TOKYO_R50_LONG TOKYO_R50_SHORT TOKYO_R30_DIR TOKYO_R30_LONG TOKYO_R30_SHORT TOKYO_LAND CMA_LAT CMA_LON CMA_CAT CMA_WIND CMA_PRES HKO_LAT HKO_LON HKO_CAT HKO_WIND HKO_PRES NEWDELHI_LAT NEWDELHI_LON NEWDELHI_GRADE NEWDELHI_WIND NEWDELHI_PRES NEWDELHI_CI NEWDELHI_DP NEWDELHI_POCI REUNION_LAT REUNION_LON REUNION_TYPE REUNION_WIND REUNION_PRES REUNION_TNUM REUNION_CI REUNION_RMW REUNION_R34_NE REUNION_R34_SE REUNION_R34_SW REUNION_R34_NW REUNION_R50_NE REUNION_R50_SE REUNION_R50_SW REUNION_R50_NW REUNION_R64_NE REUNION_R64_SE REUNION_R64_SW REUNION_R64_NW BOM_LAT BOM_LON BOM_TYPE BOM_WIND BOM_PRES BOM_TNUM BOM_CI BOM_RMW BOM_R34_NE BOM_R34_SE BOM_R34_SW BOM_R34_NW BOM_R50_NE BOM_R50_SE BOM_R50_SW BOM_R50_NW BOM_R64_NE BOM_R64_SE BOM_R64_SW BOM_R64_NW BOM_ROCI BOM_POCI BOM_EYE BOM_POS_METHOD BOM_PRES_METHOD NADI_LAT NADI_LON NADI_CAT NADI_WIND NADI_PRES WELLINGTON_LAT WELLINGTON_LON WELLINGTON_WIND WELLINGTON_PRES DS824_LAT DS824_LON DS824_STAGE DS824_WIND DS824_PRES TD9636_LAT TD9636_LON TD9636_STAGE TD9636_WIND TD9636_PRES TD9635_LAT TD9635_LON TD9635_WIND TD9635_PRES TD9635_ROCI NEUMANN_LAT NEUMANN_LON NEUMANN_CLASS NEUMANN_WIND NEUMANN_PRES MLC_LAT MLC_LON MLC_CLASS MLC_WIND MLC_PRES USA_GUST BOM_GUST BOM_GUST_PER REUNION_GUST REUNION_GUST_PER USA_SEAHGT USA_SEARAD_NE USA_SEARAD_SE USA_SEARAD_SW USA_SEARAD_NW STORM_SPEED STORM_DIR
2012010S24049 2012 3 SI MM DANDO 2012-01-10 06:00:00 SS -23.5000 48.6000 30 1004 reunion main 92 92 _____O________ -1 -23.5000 48.6000 7 30 1004 9.90000 1 7 99
2012010S24049 2012 3 SI MM DANDO 2012-01-10 09:00:00 SS -23.5602 48.9923 main 134 134 _____P________ -1 -23.5602 48.9923 7 30 1003 7 98
2012010S24049 2012 3 SI MM DANDO 2012-01-10 12:00:00 SS -23.6000 49.4000 30 1002 reunion main 174 174 _____O________ -1 -23.6000 49.4000 7 30 1002 9.90000 1 8 94
2012010S24049 2012 3 SI MM DANDO 2012-01-10 15:00:00 SS -23.6199 49.8354 main 215 215 _____P________ -1 -23.6199 49.8354 7 31 1001 8 97
2012010S24049 2012 3 SI MM DANDO 2012-01-10 18:00:00 SS -23.7000 50.3000 33 1000 reunion main 267 267 _____O________ -1 -23.7000 50.3000 7 33 1000 9.90000 1 9 109
2012010S24049 2012 3 SI MM DANDO 2012-01-10 21:00:00 SS -23.9196 50.7625 main 320 320 _____P________ -1 -23.9196 50.7625 7 33 1000 10 119
2012010S24049 2012 3 SI MM DANDO 2012-01-11 00:00:00 SS -24.2000 51.3000 33 1000 reunion main 376 376 _____O________ -1 -24.2000 51.3000 7 33 1000 9.90000 1 13 116
2012010S24049 2012 3 SI MM DANDO 2012-01-11 03:00:00 SS -24.4656 52.0146 main 453 453 _____P________ -1 -24.4656 52.0146 7 33 1000 14 111
2012010S24049 2012 3 SI MM DANDO 2012-01-11 06:00:00 SS -24.7000 52.7000 33 1000 reunion main 463 446 _____O________ -1 -24.7000 52.7000 7 33 1000 9.90000 1 11 110
2012010S24049 2012 3 SI MM DANDO 2012-01-11 09:00:00 SS -24.8497 53.1829 main 446 446 _____P________ -1 -24.8497 53.1829 7 34 998 8 112
2012010S24049 2012 3 SI MM DANDO 2012-01-11 12:00:00 SS -25.0000 53.5000 35 997 reunion main 452 448 _____O________ -1 -25.0000 53.5000 7 35 997 9.90000 1 7 129
2012010S24049 2012 3 SI MM DANDO 2012-01-11 15:00:00 SS -25.2573 53.7474 main 475 472 _____P________ -1 -25.2573 53.7474 7 37 996 6 151
2012010S24049 2012 3 SI MM DANDO 2012-01-11 18:00:00 SS -25.5000 53.8000 40 995 reunion main 493 493 _____O________ -1 -25.5000 53.8000 7 40 995 9.90000 0 199 151 0 1 4 200
2012010S24049 2012 3 SI MM DANDO 2012-01-11 21:00:00 SS -25.6452 53.5878 main 510 510 _____P________ -1 -25.6452 53.5878 7 40 995 5 246
2012010S24049 2012 3 SI MM DANDO 2012-01-12 00:00:00 SS -25.7000 53.3000 40 995 reunion main 532 532 _____O________ -1 -25.7000 53.3000 7 40 995 9.90000 1 4 265
2012010S24049 2012 3 SI MM DANDO 2012-01-12 03:00:00 SS -25.6799 53.1850 main 536 530 _____P________ -1 -25.6799 53.1850 7 36 997 2 299
2012010S24049 2012 3 SI MM DANDO 2012-01-12 06:00:00 SS -25.6000 53.1000 33 999 reunion main 530 524 _____O________ -1 -25.6000 53.1000 7 33 999 9.90000 1 2 309
2012010S24049 2012 3 SI MM DANDO 2012-01-12 09:00:00 SS -25.5374 52.9878 main 524 519 _____P________ -1 -25.5374 52.9878 7 31 999 3 306
2012010S24049 2012 3 SI MM DANDO 2012-01-12 12:00:00 SS -25.4000 52.8000 30 1000 reunion main 524 512 _____O________ -1 -25.4000 52.8000 7 30 1000 9.90000 1 6 314
2012010S24049 2012 3 SI MM DANDO 2012-01-12 15:00:00 SS -25.1075 52.4947 main 512 472 _____P________ -1 -25.1075 52.4947 7 30 1000 9 313
2012010S24049 2012 3 SI MM DANDO 2012-01-12 18:00:00 SS -24.8000 52.1000 30 1000 reunion main 472 427 _____O________ -1 -24.8000 52.1000 7 30 1000 9.90000 1 9 303
2012010S24049 2012 3 SI MM DANDO 2012-01-12 21:00:00 SS -24.6201 51.6577 main 427 376 _____P________ -1 -24.6201 51.6577 7 30 1000 9 290
2012010S24049 2012 3 SI MM DANDO 2012-01-13 00:00:00 SS -24.5000 51.2000 30 1000 reunion main 376 334 _____O________ -1 -24.5000 51.2000 7 30 1000 9.90000 1 8 288
2012010S24049 2012 3 SI MM DANDO 2012-01-13 03:00:00 SS -24.3696 50.8224 main 334 292 _____P________ -1 -24.3696 50.8224 7 30 1000 8 285
2012010S24049 2012 3 SI MM DANDO 2012-01-13 06:00:00 SS -24.3000 50.4000 30 1000 reunion main 292 235 _____O________ -1 -24.3000 50.4000 7 30 1000 9.90000 1 9 273
2012010S24049 2012 3 SI MM DANDO 2012-01-13 09:00:00 SS -24.3280 49.7853 main 235 178 _____P________ -1 -24.3280 49.7853 7 30 1000 11 265
2012010S24049 2012 3 SI MM DANDO 2012-01-13 12:00:00 SS -24.4000 49.2000 30 1000 reunion main 178 148 _____O________ -1 -24.4000 49.2000 7 30 1000 9.90000 1 8 262
2012010S24049 2012 3 SI MM DANDO 2012-01-13 15:00:00 SS -24.4494 48.8849 main 148 124 _____P________ -1 -24.4494 48.8849 7 30 1000 6 260
2012010S24049 2012 3 SI MM DANDO 2012-01-13 18:00:00 SS -24.5000 48.6000 30 1001 reunion main 124 78 _____O________ -1 -24.5000 48.6000 7 30 1001 9.90000 1 7 265
2012010S24049 2012 3 SI MM DANDO 2012-01-13 21:00:00 SS -24.5052 48.1145 main 78 32 _____P________ -1 -24.5052 48.1145 7 30 1001 9 264
2012010S24049 2012 3 SI MM DANDO 2012-01-14 00:00:00 SS -24.6000 47.6000 30 1002 reunion main 32 10 _____O________ -1 -24.6000 47.6000 7 30 1002 9.90000 1 9 243
2012010S24049 2012 3 SI MM DANDO 2012-01-14 03:00:00 SS -24.9195 47.2151 main 10 0 _____P________ -1 -24.9195 47.2151 7 31 1002 10 226
2012010S24049 2012 3 SI MM DANDO 2012-01-14 06:00:00 SS -25.3000 46.8000 33 1003 reunion main 11 11 _____O________ -1 -25.3000 46.8000 7 33 1003 9.90000 1 11 233
2012010S24049 2012 3 SI MM DANDO 2012-01-14 09:00:00 SS -25.5569 46.2743 main 45 24 _____P________ -1 -25.5569 46.2743 7 34 1002 12 245
2012010S24049 2012 3 SI MM DANDO 2012-01-14 12:00:00 SS -25.8000 45.6000 35 1002 reunion main 24 22 _____O________ -1 -25.8000 45.6000 7 35 1002 9.90000 1 15 249
2012010S24049 2012 3 SI MM DANDO 2012-01-14 15:00:00 SS -26.0930 44.7301 main 73 73 _____P________ -1 -26.0930 44.7301 7 35 1001 17 250
2012010S24049 2012 3 SI MM DANDO 2012-01-14 18:00:00 SS -26.4000 43.8000 35 1001 reunion main 136 136 _____O________ -1 -26.4000 43.8000 7 35 1001 9.90000 0 99 0 0 1 17 248
2012010S24049 2012 3 SI MM DANDO 2012-01-14 21:00:00 SS -26.7212 43.0148 main 209 209 _____P________ -1 -26.7212 43.0148 7 35 1000 0 89 14 0 16 247
2012010S24049 2012 3 SI MM DANDO 2012-01-15 00:00:00 SS -27.0000 42.2000 35 1000 reunion main 286 286 _____V________ -1 -27.0000 42.2000 7 35 1000 9.90000 0 79 29 0 1 17 254
2012010S24049 2012 3 SI MM DANDO 2012-01-15 03:00:00 SS -27.1957 41.1850 main 372 372 _____P________ -1 -27.1957 41.1850 7 35 1000 0 69 44 0 18 260
2012010S24049 2012 3 SI MM DANDO 2012-01-15 06:00:00 SS -27.3000 40.2000 35 1000 reunion main 457 457 _____O________ -1 -27.3000 40.2000 7 35 1000 9.90000 30 0 59 59 0 1 16 264
2012010S24049 2012 3 SI MM DANDO 2012-01-15 09:00:00 SS -27.3665 39.4478 main 531 477 _____P________ -1 -27.3665 39.4478 7 35 1000 31 0 59 59 0 12 270
2012010S24049 2012 3 SI MM DANDO 2012-01-15 12:00:00 SS -27.3000 38.8000 35 1000 reunion main 477 417 _____V________ -1 -27.3000 38.8000 7 35 1000 9.90000 32 0 59 59 0 1 12 285
2012010S24049 2012 3 SI MM DANDO 2012-01-15 15:00:00 SS -27.0522 38.1346 main 409 335 _____P________ -1 -27.0522 38.1346 7 36 998 33 0 69 69 20 13 297
2012010S24049 2012 3 SI MM DANDO 2012-01-15 18:00:00 SS -26.7000 37.5000 38 997 reunion main 335 270 _____O________ -1 -26.7000 37.5000 7 38 997 9.90000 34 0 80 80 40 1 13 302
2012010S24049 2012 3 SI MM DANDO 2012-01-15 21:00:00 SS -26.3720 36.9006 main 270 197 _____P________ -1 -26.3720 36.9006 7 39 996 33 0 80 80 40 13 303
2012010S24049 2012 3 SI MM DANDO 2012-01-16 00:00:00 SS -26.0000 36.3000 40 995 reunion main 197 126 _____O________ -1 -26.0000 36.3000 7 40 995 9.90000 32 0 80 80 40 1 14 306
2012010S24049 2012 3 SI MM DANDO 2012-01-16 03:00:00 SS -25.5427 35.6195 main 112 49 _____P________ -1 -25.5427 35.6195 7 42 993 28 0 84 80 37 15 308
2012010S24049 2012 3 SI MM DANDO 2012-01-16 06:00:00 SS -25.1000 35.0000 45 992 reunion main 49 10 _____O________ -1 -25.1000 35.0000 7 45 992 9.90000 24 0 89 80 35 1 12 308
2012010S24049 2012 3 SI MM DANDO 2012-01-16 09:00:00 SS -24.7772 34.5331 main 0 0 _____P________ -1 -24.7772 34.5331 7 42 993 0 64 66 17 9 310
2012010S24049 2012 3 SI MM DANDO 2012-01-16 12:00:00 NR -24.5000 34.2000 40 995 reunion main 0 0 _____O________ -1 -24.5000 34.2000 8 40 995 9.90000 0 40 53 0 1 8 320
2012010S24049 2012 3 SI MM DANDO 2012-01-16 15:00:00 NR -24.1772 33.9853 main 0 0 _____P________ -1 -24.1772 33.9853 8 7 329
2012010S24049 2012 3 SI MM DANDO 2012-01-16 18:00:00 NR -23.9000 33.8000 reunion main 0 0 _____O________ -1 -23.9000 33.8000 8 9.90000 1 6 316
2012010S24049 2012 3 SI MM DANDO 2012-01-16 21:00:00 NR -23.7424 33.5303 main 0 0 _____P________ -1 -23.7424 33.5303 8 6 299
2012010S24049 2012 3 SI MM DANDO 2012-01-17 00:00:00 NR -23.6000 33.2000 reunion main 0 0 _____O________ -1 -23.6000 33.2000 8 9.90000 1 8 304
2012010S24049 2012 3 SI MM DANDO 2012-01-17 03:00:00 NR -23.3049 32.8219 main 0 0 _____P________ -1 -23.3049 32.8219 8 9 304
2012010S24049 2012 3 SI MM DANDO 2012-01-17 06:00:00 NR -23.1000 32.4000 reunion main 0 0 _____O________ -1 -23.1000 32.4000 8 9.90000 1 8 278
2012010S24049 2012 3 SI MM DANDO 2012-01-17 09:00:00 NR -23.1976 31.9356 main 0 0 _____P________ -1 -23.1976 31.9356 8 9 250
2012010S24049 2012 3 SI MM DANDO 2012-01-17 12:00:00 NR -23.4000 31.5000 reunion main 0 0 _____O________ -1 -23.4000 31.5000 8 9.90000 1 8 244
2012010S24049 2012 3 SI MM DANDO 2012-01-17 15:00:00 NR -23.5297 31.1850 main 0 0 _____P________ -1 -23.5297 31.1850 8 6 250
2012010S24049 2012 3 SI MM DANDO 2012-01-17 18:00:00 NR -23.6000 30.9000 reunion main 0 0 _____O________ -1 -23.6000 30.9000 8 9.90000 1 6 264
2012010S24049 2012 3 SI MM DANDO 2012-01-17 21:00:00 NR -23.5874 30.5650 main 0 0 _____P________ -1 -23.5874 30.5650 8 6 279
2012010S24049 2012 3 SI MM DANDO 2012-01-18 00:00:00 NR -23.5000 30.2000 reunion main 0 0 _____O________ -1 -23.5000 30.2000 8 9.90000 1 7 289
2012010S24049 2012 3 SI MM DANDO 2012-01-18 03:00:00 NR -23.3498 29.8223 main 0 0 _____P________ -1 -23.3498 29.8223 8 8 292
2012010S24049 2012 3 SI MM DANDO 2012-01-18 06:00:00 TS -23.2000 29.4000 reunion main 0 0 _____O________ -1 -23.2000 29.4000 6 9.90000 1 9 285
2012010S24049 2012 3 SI MM DANDO 2012-01-18 09:00:00 TS -23.1254 28.9176 main 0 0 _____P________ -1 -23.1254 28.9176 6 9 276
2012010S24049 2012 3 SI MM DANDO 2012-01-18 12:00:00 TS -23.1000 28.4000 reunion main 0 _____O________ -1 -23.1000 28.4000 6 9.90000 1 10 273

IBTrACS Databaseについて

本データベースは、米国NOAAが公開する1842年以降の世界の熱帯低気圧のベストトラックデータアーカイブInternational Best Track Archive for Climate Stewardship (IBTrACS)を、ウェブで閲覧しやすい形式に変換したものです。

最終更新日:2021-11-26